createdAt,value
2023-04-25T00:00:42.776Z,2.00
2023-04-25T00:03:11.157Z,1.90
2023-04-25T00:05:40.043Z,1.98
2023-04-25T00:08:08.302Z,2.35
2023-04-25T00:10:36.493Z,2.25
2023-04-25T00:13:04.910Z,2.28
2023-04-25T00:15:33.181Z,2.17
2023-04-25T00:18:02.893Z,2.30
2023-04-25T00:20:31.888Z,2.07
2023-04-25T00:23:00.254Z,1.90
2023-04-25T00:25:35.871Z,2.17
2023-04-25T00:28:04.296Z,2.17
2023-04-25T00:30:32.515Z,2.03
2023-04-25T00:33:02.135Z,2.05
2023-04-25T00:35:30.394Z,1.90
2023-04-25T00:37:58.674Z,1.67
2023-04-25T00:40:26.906Z,1.80
2023-04-25T00:42:55.690Z,1.88
2023-04-25T00:45:23.953Z,2.17
2023-04-25T00:47:52.417Z,2.25
2023-04-25T00:50:22.028Z,2.20
2023-04-25T00:52:50.343Z,1.98
2023-04-25T00:55:18.643Z,2.00
2023-04-25T00:57:47.851Z,1.60
2023-04-25T01:00:16.829Z,1.85
2023-04-25T01:02:45.903Z,2.10
2023-04-25T01:05:14.568Z,2.00
2023-04-25T01:07:44.292Z,2.10
2023-04-25T01:10:12.842Z,1.70
2023-04-25T01:12:41.107Z,1.73
2023-04-25T01:15:09.788Z,2.00
2023-04-25T01:17:38.483Z,2.20
2023-04-25T01:20:08.395Z,1.92
2023-04-25T01:22:38.038Z,1.90
2023-04-25T01:25:07.282Z,2.05
2023-04-25T01:27:35.538Z,2.05
2023-04-25T01:30:04.424Z,2.17
2023-04-25T01:32:39.247Z,1.88
2023-04-25T01:35:10.452Z,2.08
2023-04-25T01:37:40.539Z,2.17
2023-04-25T01:40:09.696Z,2.63
2023-04-25T01:42:39.743Z,2.15
2023-04-25T01:45:09.988Z,1.90
2023-04-25T01:47:38.824Z,2.17
2023-04-25T01:50:09.079Z,2.40
2023-04-25T01:52:37.470Z,2.83
2023-04-25T01:55:08.264Z,2.20
2023-04-25T01:57:36.654Z,2.15
2023-04-25T02:00:10.015Z,1.98
2023-04-25T02:02:38.404Z,2.10
2023-04-25T02:05:07.832Z,2.00
2023-04-25T02:07:36.104Z,2.00
2023-04-25T02:10:04.680Z,2.60
2023-04-25T02:12:34.345Z,1.88
2023-04-25T02:15:02.854Z,2.33
2023-04-25T02:17:32.675Z,2.20
2023-04-25T02:20:00.938Z,2.33
2023-04-25T02:22:31.415Z,2.40
2023-04-25T02:24:59.669Z,2.17
2023-04-25T02:27:27.947Z,2.40
2023-04-25T02:29:57.544Z,2.40
2023-04-25T02:32:25.884Z,2.30
2023-04-25T02:34:54.198Z,2.22
2023-04-25T02:37:22.513Z,2.22
2023-04-25T02:39:50.906Z,2.33
2023-04-25T02:42:19.294Z,2.30
2023-04-25T02:44:47.624Z,2.60
2023-04-25T02:47:17.317Z,2.10
2023-04-25T02:49:46.190Z,2.17
2023-04-25T02:52:14.473Z,2.30
2023-04-25T02:54:42.764Z,2.45
2023-04-25T02:57:11.213Z,2.17
2023-04-25T02:59:39.467Z,2.17
2023-04-25T03:02:07.744Z,2.00
2023-04-25T03:04:37.925Z,2.30
2023-04-25T03:07:06.271Z,2.30
2023-04-25T03:09:34.611Z,1.80
2023-04-25T03:12:02.975Z,2.33
2023-04-25T03:14:31.259Z,2.20
2023-04-25T03:16:59.499Z,1.95
2023-04-25T03:19:27.910Z,1.83
2023-04-25T03:21:57.521Z,2.10
2023-04-25T03:24:25.770Z,1.92
2023-04-25T03:26:54.026Z,1.92
2023-04-25T03:29:25.401Z,1.92
2023-04-25T03:31:53.879Z,1.33
2023-04-25T03:34:22.957Z,1.58
2023-04-25T03:36:51.334Z,1.77
2023-04-25T03:39:20.943Z,1.85
2023-04-25T03:41:49.189Z,2.00
2023-04-25T03:44:17.459Z,1.45
2023-04-25T03:46:45.698Z,1.90
2023-04-25T03:49:14.011Z,1.55
2023-04-25T03:51:42.205Z,1.88
2023-04-25T03:54:10.472Z,1.95
2023-04-25T03:56:40.079Z,2.40
2023-04-25T03:59:08.833Z,2.40
2023-04-25T04:01:37.072Z,1.80
2023-04-25T04:04:05.760Z,2.50
2023-04-25T04:06:34.993Z,2.70
2023-04-25T04:09:03.274Z,2.45
2023-04-25T04:11:32.384Z,2.42
2023-04-25T04:14:02.022Z,2.38
2023-04-25T04:16:31.445Z,2.20
2023-04-25T04:19:00.859Z,2.17
2023-04-25T04:21:29.259Z,1.88
2023-04-25T04:23:58.775Z,2.20
2023-04-25T04:26:27.203Z,2.15
2023-04-25T04:28:56.042Z,2.05
2023-04-25T04:31:25.866Z,2.40
2023-04-25T04:33:54.167Z,1.90
2023-04-25T04:36:22.997Z,1.83
2023-04-25T04:38:51.309Z,1.90
2023-04-25T04:41:21.947Z,2.05
2023-04-25T04:46:19.510Z,1.77
2023-04-25T04:48:49.176Z,1.70
2023-04-25T04:51:17.653Z,1.73
2023-04-25T04:53:45.917Z,2.50
2023-04-25T04:56:14.225Z,1.60
2023-04-25T04:58:42.520Z,1.70
2023-04-25T05:01:10.874Z,1.77
2023-04-25T05:03:39.308Z,1.80
2023-04-25T05:06:09.935Z,1.48
2023-04-25T05:08:38.614Z,1.70
2023-04-25T05:11:06.823Z,1.42
2023-04-25T05:13:35.046Z,1.42
2023-04-25T05:16:03.420Z,1.40
2023-04-25T05:18:31.909Z,1.15
2023-04-25T05:21:00.173Z,1.17
2023-04-25T05:23:32.606Z,1.30
2023-04-25T05:26:01.853Z,1.15
2023-04-25T05:28:30.112Z,1.35
2023-04-25T05:30:58.604Z,1.52
2023-04-25T05:33:26.799Z,1.40
2023-04-25T05:35:55.108Z,1.35
2023-04-25T05:38:23.374Z,1.27
2023-04-25T05:40:52.996Z,1.55
2023-04-25T05:43:21.310Z,1.60
2023-04-25T05:45:49.706Z,1.35
2023-04-25T05:48:18.000Z,1.42
2023-04-25T05:50:46.313Z,1.50
2023-04-25T05:53:14.619Z,1.13
2023-04-25T05:55:43.038Z,1.55
2023-04-25T05:58:12.675Z,1.13
2023-04-25T06:00:42.632Z,1.30
2023-04-25T06:03:11.637Z,1.75
2023-04-25T06:05:40.036Z,1.77
2023-04-25T06:08:08.272Z,1.70
2023-04-25T06:10:36.567Z,1.77
2023-04-25T06:13:04.985Z,1.40
2023-04-25T06:15:34.840Z,0.90
2023-04-25T06:18:03.250Z,1.52
2023-04-25T06:20:31.624Z,2.03
2023-04-25T06:23:00.471Z,2.60
2023-04-25T06:25:28.772Z,1.95
2023-04-25T06:27:57.051Z,2.60
2023-04-25T06:30:26.761Z,2.15
2023-04-25T06:32:56.407Z,2.20
2023-04-25T06:35:24.728Z,1.80
2023-04-25T06:37:52.965Z,2.20
2023-04-25T06:40:21.262Z,2.10
2023-04-25T06:42:49.589Z,1.70
2023-04-25T06:45:17.918Z,1.80
2023-04-25T06:47:46.199Z,1.98
2023-04-25T06:50:15.874Z,1.60
2023-04-25T06:52:44.104Z,1.83
2023-04-25T06:55:12.331Z,2.22
2023-04-25T06:57:40.584Z,2.13
2023-04-25T07:00:10.657Z,2.03
2023-04-25T07:02:39.238Z,2.15
2023-04-25T07:05:07.790Z,1.45
2023-04-25T07:07:37.406Z,1.30
2023-04-25T07:10:06.437Z,1.30
2023-04-25T07:12:34.788Z,1.83
2023-04-25T07:15:06.870Z,2.00
2023-04-25T07:17:35.858Z,2.20
2023-04-25T07:20:04.784Z,2.30
2023-04-25T07:22:33.191Z,2.70
2023-04-25T07:25:03.121Z,2.58
2023-04-25T07:27:31.463Z,2.10
2023-04-25T07:29:59.948Z,2.45
2023-04-25T07:32:28.677Z,2.00
2023-04-25T07:34:57.024Z,1.70
2023-04-25T07:37:26.421Z,1.35
2023-04-25T07:39:55.103Z,1.40
2023-04-25T07:42:24.879Z,1.30
2023-04-25T07:44:53.323Z,1.40
2023-04-25T07:47:21.598Z,1.85
2023-04-25T07:49:50.621Z,1.27
2023-04-25T07:52:18.947Z,2.00
2023-04-25T07:54:48.274Z,1.73
2023-04-25T07:57:18.110Z,1.80
2023-04-25T07:59:47.874Z,1.65
2023-04-25T08:02:16.182Z,1.90
2023-04-25T08:04:44.577Z,1.45
2023-04-25T08:07:12.922Z,1.60
2023-04-25T08:09:41.168Z,2.00
2023-04-25T08:12:09.592Z,2.35
2023-04-25T08:14:38.348Z,1.88
2023-04-25T08:17:08.237Z,2.13
2023-04-25T08:19:36.530Z,1.93
2023-04-25T08:22:04.918Z,2.00
2023-04-25T08:24:33.172Z,1.90
2023-04-25T08:27:01.661Z,1.60
2023-04-25T08:29:29.957Z,1.95
2023-04-25T08:31:58.221Z,1.52
2023-04-25T08:34:27.917Z,1.58
2023-04-25T08:36:56.176Z,1.93
2023-04-25T08:39:24.420Z,1.65
2023-04-25T08:41:53.925Z,1.52
2023-04-25T08:44:23.334Z,1.40
2023-04-25T08:46:52.793Z,1.63
2023-04-25T08:49:24.458Z,1.55
2023-04-25T08:51:54.974Z,1.48
2023-04-25T08:57:06.365Z,1.20
2023-04-25T08:59:36.626Z,1.27
2023-04-25T09:02:06.113Z,1.40
2023-04-25T09:04:34.465Z,1.30
2023-04-25T09:07:04.060Z,1.38
2023-04-25T09:09:32.452Z,1.20
2023-04-25T09:12:02.643Z,1.45
2023-04-25T09:14:31.378Z,1.08
2023-04-25T09:17:01.463Z,0.93
2023-04-25T09:22:05.448Z,1.35
2023-04-25T09:24:36.031Z,0.93
2023-04-25T09:29:37.284Z,1.10
2023-04-25T09:32:18.485Z,1.10
2023-04-25T09:34:49.310Z,0.70
2023-04-25T09:37:22.758Z,1.40
2023-04-25T09:39:52.292Z,1.40
2023-04-25T09:42:24.789Z,1.50
2023-04-25T09:44:54.399Z,1.02
2023-04-25T09:47:24.714Z,0.80
2023-04-25T09:49:53.755Z,1.17
2023-04-25T09:52:26.133Z,1.25
2023-04-25T09:54:55.081Z,0.73
2023-04-25T09:57:25.086Z,1.30
2023-04-25T09:59:54.641Z,0.88
2023-04-25T10:02:24.681Z,0.88
2023-04-25T10:04:55.976Z,0.80
2023-04-25T10:07:28.206Z,0.68
2023-04-25T10:10:00.464Z,1.02
2023-04-25T10:12:28.777Z,1.02
2023-04-25T10:14:57.304Z,0.70
2023-04-25T10:17:25.675Z,1.20
2023-04-25T10:19:54.269Z,1.30
2023-04-25T10:22:28.665Z,1.25
2023-04-25T10:24:57.475Z,1.10
2023-04-25T10:27:25.771Z,0.63
2023-04-25T10:30:05.385Z,0.93
2023-04-25T10:32:34.484Z,1.30
2023-04-25T10:35:13.186Z,0.98
2023-04-25T10:37:58.775Z,1.60
2023-04-25T10:40:27.033Z,0.80
2023-04-25T10:42:55.684Z,1.00
2023-04-25T10:45:24.353Z,1.15
2023-04-25T10:47:52.832Z,1.00
2023-04-25T10:50:21.067Z,0.98
2023-04-25T10:52:50.796Z,1.10
2023-04-25T10:55:19.073Z,0.93
2023-04-25T10:57:49.340Z,0.80
2023-04-25T11:00:19.705Z,0.80
2023-04-25T11:02:50.242Z,1.00
2023-04-25T11:05:23.839Z,1.02
2023-04-25T11:08:06.291Z,1.10
2023-04-25T11:10:37.159Z,0.93
2023-04-25T11:13:05.857Z,1.33
2023-04-25T11:15:34.199Z,2.72
2023-04-25T11:18:03.174Z,2.65
2023-04-25T11:20:31.841Z,3.67
2023-04-25T11:25:31.871Z,4.65
2023-04-25T11:28:02.201Z,3.63
2023-04-25T11:30:31.680Z,3.40
2023-04-25T11:33:00.186Z,3.13
2023-04-25T11:35:28.478Z,1.75
2023-04-25T11:37:56.806Z,2.38
2023-04-25T11:40:26.694Z,1.40
2023-04-25T11:42:55.005Z,1.67
2023-04-25T11:45:25.289Z,1.73
2023-04-25T11:47:53.930Z,2.55
2023-04-25T11:50:22.345Z,1.77
2023-04-25T11:52:51.445Z,1.90
2023-04-25T11:55:22.104Z,1.63
2023-04-25T12:02:54.661Z,2.20
2023-04-25T12:05:32.766Z,2.28
2023-04-25T12:08:14.584Z,1.85
2023-04-25T12:13:27.691Z,2.80
2023-04-25T12:15:56.912Z,2.90
2023-04-25T12:18:28.400Z,3.60
2023-04-25T12:20:57.196Z,2.97
2023-04-25T12:23:29.589Z,2.60
2023-04-25T12:25:58.722Z,2.35
2023-04-25T12:28:29.153Z,1.27
2023-04-25T12:30:59.485Z,1.38
2023-04-25T12:33:28.947Z,1.52
2023-04-25T12:35:57.505Z,0.80
2023-04-25T12:38:26.726Z,1.13
2023-04-25T12:40:55.139Z,1.08
2023-04-25T12:43:24.323Z,1.20
2023-04-25T12:45:54.936Z,0.98
2023-04-25T12:50:52.797Z,0.90
2023-04-25T12:53:22.462Z,0.77
2023-04-25T12:55:51.032Z,1.00
2023-04-25T12:58:20.973Z,1.00
2023-04-25T13:00:49.477Z,0.73
2023-04-25T13:03:19.851Z,1.02
2023-04-25T13:05:48.307Z,0.70
2023-04-25T13:08:16.596Z,1.27
2023-04-25T13:10:45.181Z,0.80
2023-04-25T13:13:13.561Z,0.93
2023-04-25T13:15:41.815Z,1.13
2023-04-25T13:18:10.234Z,1.00
2023-04-25T13:20:39.899Z,0.73
2023-04-25T13:23:08.214Z,1.05
2023-04-25T13:25:36.597Z,0.47
2023-04-25T13:28:05.713Z,0.85
2023-04-25T13:30:33.961Z,0.40
2023-04-25T13:33:04.330Z,0.60
2023-04-25T13:38:02.820Z,0.77
2023-04-25T13:40:31.682Z,0.60
2023-04-25T13:43:00.287Z,0.60
2023-04-25T13:45:29.002Z,0.60
2023-04-25T13:47:57.896Z,0.70
2023-04-25T13:50:26.828Z,0.77
2023-04-25T13:52:55.125Z,0.32
2023-04-25T13:55:24.781Z,0.40
2023-04-25T13:57:53.306Z,0.40
2023-04-25T14:00:22.148Z,0.47
2023-04-25T14:02:50.905Z,0.47
2023-04-25T14:05:19.342Z,0.40
2023-04-25T14:07:47.593Z,0.38
2023-04-25T14:10:16.688Z,0.30
2023-04-25T14:12:46.586Z,0.50
2023-04-25T14:15:14.973Z,0.60
2023-04-25T14:17:43.241Z,0.50
2023-04-25T14:20:12.546Z,0.30
2023-04-25T14:22:44.068Z,0.40
2023-04-25T14:25:12.888Z,0.50
2023-04-25T14:27:41.382Z,0.40
2023-04-25T14:30:12.857Z,0.40
2023-04-25T14:32:41.424Z,0.60
2023-04-25T14:35:11.145Z,0.40
2023-04-25T14:37:40.336Z,0.60
2023-04-25T14:40:11.669Z,0.63
2023-04-25T14:42:40.207Z,0.60
2023-04-25T14:45:09.955Z,0.90
2023-04-25T14:47:39.932Z,0.82
2023-04-25T14:50:09.536Z,0.98
2023-04-25T14:52:38.177Z,0.85
2023-04-25T14:55:06.779Z,1.00
2023-04-25T14:57:35.478Z,0.77
2023-04-25T15:00:09.453Z,1.20
2023-04-25T15:02:39.526Z,0.65
2023-04-25T15:05:09.583Z,1.13
2023-04-25T15:07:38.071Z,1.23
2023-04-25T15:10:11.968Z,0.60
2023-04-25T15:12:40.306Z,0.80
2023-04-25T15:15:14.272Z,1.00
2023-04-25T15:17:47.462Z,0.60
2023-04-25T15:20:16.097Z,1.00
2023-04-25T15:22:45.859Z,0.80
2023-04-25T15:25:14.084Z,0.60
2023-04-25T15:27:44.818Z,0.93
2023-04-25T15:30:16.138Z,0.70
2023-04-25T15:32:45.006Z,0.47
2023-04-25T15:35:15.665Z,0.80
2023-04-25T15:40:13.986Z,0.88
2023-04-25T15:42:44.367Z,1.00
2023-04-25T15:45:13.475Z,1.10
2023-04-25T15:47:42.103Z,0.77
2023-04-25T15:50:11.435Z,1.20
2023-04-25T15:52:41.088Z,1.45
2023-04-25T15:55:11.611Z,1.10
2023-04-25T15:57:42.082Z,1.00
2023-04-25T16:00:13.079Z,1.30
2023-04-25T16:02:42.602Z,1.30
2023-04-25T16:05:12.891Z,1.52
2023-04-25T16:07:44.638Z,1.05
2023-04-25T16:10:13.467Z,1.30
2023-04-25T16:12:41.761Z,1.52
2023-04-25T16:15:11.501Z,1.30
2023-04-25T16:17:40.162Z,1.30
2023-04-25T16:20:10.682Z,1.38
2023-04-25T16:22:40.036Z,0.80
2023-04-25T16:25:10.561Z,1.50
2023-04-25T16:27:39.641Z,1.00
2023-04-25T16:30:09.937Z,1.20
2023-04-25T16:32:39.807Z,1.05
2023-04-25T16:35:09.533Z,1.05
2023-04-25T16:37:37.858Z,1.40
2023-04-25T16:40:09.016Z,1.70
2023-04-25T16:42:38.654Z,1.50
2023-04-25T16:45:07.646Z,2.13
2023-04-25T16:47:36.327Z,2.00
2023-04-25T16:50:05.185Z,2.00
2023-04-25T16:52:33.454Z,0.90
2023-04-25T16:55:01.815Z,1.80
2023-04-25T16:57:30.233Z,1.50
2023-04-25T16:59:59.917Z,2.03
2023-04-25T17:02:28.624Z,1.70
2023-04-25T17:04:56.982Z,1.52
2023-04-25T17:07:25.328Z,1.60
2023-04-25T17:09:53.801Z,2.03
2023-04-25T17:12:22.347Z,2.20
2023-04-25T17:14:51.140Z,2.58
2023-04-25T17:17:21.424Z,2.13
2023-04-25T17:19:49.734Z,2.00
2023-04-25T17:22:18.142Z,1.92
2023-04-25T17:24:46.497Z,1.88
2023-04-25T17:27:14.845Z,2.40
2023-04-25T17:29:43.053Z,2.63
2023-04-25T17:32:11.481Z,1.50
2023-04-25T17:34:41.130Z,2.92
2023-04-25T17:37:15.113Z,2.97
2023-04-25T17:39:43.777Z,2.80
2023-04-25T17:42:12.794Z,2.13
2023-04-25T17:44:41.773Z,1.65
2023-04-25T17:47:11.521Z,2.22
2023-04-25T17:49:41.457Z,1.70
2023-04-25T17:52:10.091Z,2.22
2023-04-25T17:54:38.462Z,1.95
2023-04-25T17:57:07.100Z,2.13
2023-04-25T17:59:35.655Z,2.38
2023-04-25T18:02:04.027Z,1.20
2023-04-25T18:04:32.880Z,1.73
2023-04-25T18:07:02.537Z,2.17
2023-04-25T18:09:32.393Z,1.77
2023-04-25T18:12:01.334Z,2.30
2023-04-25T18:14:29.858Z,2.10
2023-04-25T18:16:58.077Z,2.10
2023-04-25T18:19:26.286Z,2.38
2023-04-25T18:21:56.156Z,2.35
2023-04-25T18:24:27.138Z,2.30
2023-04-25T18:26:57.327Z,2.15
2023-04-25T18:29:33.066Z,2.05
2023-04-25T18:32:05.259Z,1.77
2023-04-25T18:34:34.085Z,1.90
2023-04-25T18:37:02.405Z,1.85
2023-04-25T18:39:32.221Z,1.92
2023-04-25T18:42:04.637Z,1.75
2023-04-25T18:44:39.537Z,1.50
2023-04-25T18:47:07.977Z,2.03
2023-04-25T18:49:37.494Z,1.13
2023-04-25T18:52:08.444Z,1.52
2023-04-25T18:54:38.179Z,1.48
2023-04-25T18:57:07.136Z,1.33
2023-04-25T18:59:35.619Z,1.60
2023-04-25T19:02:05.602Z,2.55
2023-04-25T19:04:34.289Z,2.20
2023-04-25T19:07:03.574Z,2.10
2023-04-25T19:09:32.077Z,2.38
2023-04-25T19:12:02.492Z,2.50
2023-04-25T19:14:32.404Z,3.10
2023-04-25T19:17:00.852Z,2.70
2023-04-25T19:19:29.275Z,3.00
2023-04-25T19:21:59.108Z,2.90
2023-04-25T19:24:27.506Z,2.65
2023-04-25T19:26:55.785Z,3.30
2023-04-25T19:29:25.481Z,2.78
2023-04-25T19:31:54.551Z,2.70
2023-04-25T19:34:24.619Z,3.22
2023-04-25T19:36:54.518Z,2.42
2023-04-25T19:39:23.654Z,2.50
2023-04-25T19:41:52.258Z,2.95
2023-04-25T19:44:20.502Z,3.30
2023-04-25T19:46:50.753Z,2.90
2023-04-25T19:49:19.366Z,3.28
2023-04-25T19:51:47.631Z,2.67
2023-04-25T19:54:15.952Z,3.30
2023-04-25T19:56:44.216Z,3.70
2023-04-25T19:59:12.513Z,3.00
2023-04-25T20:01:40.948Z,3.20
2023-04-25T20:04:10.738Z,3.15
2023-04-25T20:06:39.076Z,2.63
2023-04-25T20:09:09.479Z,3.28
2023-04-25T20:11:37.817Z,3.10
2023-04-25T20:14:06.382Z,3.50
2023-04-25T20:16:34.657Z,2.90
2023-04-25T20:19:02.962Z,3.15
2023-04-25T20:21:34.144Z,2.75
2023-04-25T20:24:03.051Z,3.60
2023-04-25T20:26:33.837Z,2.80
2023-04-25T20:29:02.266Z,3.65
2023-04-25T20:31:32.669Z,2.90
2023-04-25T20:34:01.302Z,3.58
2023-04-25T20:36:29.737Z,5.63
2023-04-25T20:38:59.472Z,4.97
2023-04-25T20:41:27.711Z,3.93
2023-04-25T20:43:55.989Z,4.57
2023-04-25T20:46:24.909Z,4.75
2023-04-25T20:48:53.688Z,4.72
2023-04-25T20:51:22.952Z,4.43
2023-04-25T20:53:51.477Z,3.80
2023-04-25T20:56:21.145Z,4.45
2023-04-25T20:58:49.813Z,4.20
2023-04-25T21:01:18.727Z,4.28
2023-04-25T21:03:48.386Z,4.47
2023-04-25T21:06:16.974Z,5.80
2023-04-25T21:08:45.463Z,4.72
2023-04-25T21:11:13.883Z,7.70
2023-04-25T21:13:43.510Z,3.55
2023-04-25T21:16:11.773Z,5.95
2023-04-25T21:18:39.977Z,3.75
2023-04-25T21:21:08.500Z,4.47
2023-04-25T21:23:36.701Z,4.75
2023-04-25T21:26:04.911Z,4.55
2023-04-25T21:28:33.156Z,4.05
2023-04-25T21:31:02.780Z,4.75
2023-04-25T21:33:31.400Z,5.33
2023-04-25T21:36:00.039Z,5.13
2023-04-25T21:38:28.328Z,4.65
2023-04-25T21:40:56.665Z,5.20
2023-04-25T21:43:24.872Z,4.40
2023-04-25T21:46:19.089Z,5.70
2023-04-25T21:48:43.214Z,6.03
2023-04-25T21:51:12.051Z,4.93
2023-04-25T21:53:40.438Z,5.78
2023-04-25T21:56:09.014Z,3.83
2023-04-25T21:58:37.580Z,3.85
2023-04-25T22:01:05.849Z,4.55
2023-04-25T22:03:34.296Z,4.80
2023-04-25T22:06:04.917Z,3.42
2023-04-25T22:08:33.250Z,4.60
2023-04-25T22:11:02.857Z,5.60
2023-04-25T22:13:33.375Z,7.32
2023-04-25T22:16:02.057Z,4.65
2023-04-25T22:18:30.407Z,6.53
2023-04-25T22:20:58.754Z,5.97
2023-04-25T22:23:28.925Z,7.43
2023-04-25T22:25:57.203Z,5.25
2023-04-25T22:28:25.482Z,5.75
2023-04-25T22:30:53.683Z,3.60
2023-04-25T22:33:21.983Z,5.80
2023-04-25T22:35:50.208Z,3.25
2023-04-25T22:38:18.570Z,3.47
2023-04-25T22:40:48.362Z,2.58
2023-04-25T22:43:16.766Z,4.60
2023-04-25T22:45:45.046Z,5.00
2023-04-25T22:48:13.647Z,4.82
2023-04-25T22:50:41.917Z,5.43
2023-04-25T22:53:11.151Z,3.83
2023-04-25T22:55:39.894Z,2.88
2023-04-25T22:58:10.070Z,4.50
2023-04-25T23:00:38.324Z,4.25
2023-04-25T23:03:07.869Z,5.18
2023-04-25T23:05:36.442Z,3.90
2023-04-25T23:08:05.494Z,4.82
2023-04-25T23:10:33.817Z,4.85
2023-04-25T23:13:02.174Z,2.70
2023-04-25T23:15:31.956Z,2.85
2023-04-25T23:18:00.271Z,6.68
2023-04-25T23:20:28.571Z,3.67
2023-04-25T23:22:56.851Z,3.63
2023-04-25T23:25:25.971Z,6.57
2023-04-25T23:27:54.311Z,3.03
2023-04-25T23:30:23.048Z,7.00
2023-04-25T23:32:53.582Z,4.03
2023-04-25T23:37:50.127Z,7.00
2023-04-25T23:40:18.656Z,8.65
2023-04-25T23:42:47.498Z,8.20
2023-04-25T23:45:16.692Z,8.35
2023-04-25T23:47:45.041Z,6.97
2023-04-25T23:50:14.709Z,13.73
2023-04-25T23:52:43.034Z,12.48
2023-04-25T23:55:11.412Z,10.82
2023-04-25T23:57:39.688Z,33.15
